createdAt,value
2023-03-14T00:00:18.545Z,98538.16
2023-03-14T00:02:46.363Z,98536.47
2023-03-14T00:05:13.566Z,98537.28
2023-03-14T00:07:41.092Z,98528.97
2023-03-14T00:10:14.493Z,98535.66
2023-03-14T00:12:43.211Z,98528.13
2023-03-14T00:15:11.877Z,98507.22
2023-03-14T00:17:39.644Z,98490.50
2023-03-14T00:20:12.083Z,98485.50
2023-03-14T00:22:40.213Z,98472.09
2023-03-14T00:25:10.604Z,98463.78
2023-03-14T00:27:38.171Z,98452.88
2023-03-14T00:30:08.702Z,98460.44
2023-03-14T00:32:36.002Z,98459.56
2023-03-14T00:35:04.329Z,98468.72
2023-03-14T00:37:31.592Z,98444.44
2023-03-14T00:39:59.550Z,98451.16
2023-03-14T00:42:26.938Z,98467.06
2023-03-14T00:44:54.171Z,98493.78
2023-03-14T00:47:21.306Z,98498.78
2023-03-14T00:49:48.748Z,98472.91
2023-03-14T00:52:16.032Z,98496.28
2023-03-14T00:54:43.240Z,98505.50
2023-03-14T00:57:10.395Z,98505.50
2023-03-14T00:59:37.528Z,98503.81
2023-03-14T01:02:04.738Z,98513.88
2023-03-14T01:04:32.283Z,98522.22
2023-03-14T01:06:59.560Z,98518.03
2023-03-14T01:09:26.711Z,98517.19
2023-03-14T01:11:53.878Z,98510.53
2023-03-14T01:14:21.091Z,98502.19
2023-03-14T01:16:48.202Z,98481.28
2023-03-14T01:19:15.435Z,98481.28
2023-03-14T01:21:42.705Z,98469.63
2023-03-14T01:24:12.752Z,98471.25
2023-03-14T01:26:40.000Z,98459.59
2023-03-14T01:29:07.196Z,98477.13
2023-03-14T01:31:34.412Z,98458.72
2023-03-14T01:34:01.654Z,98462.06
2023-03-14T01:36:30.484Z,98469.59
2023-03-14T01:38:58.895Z,98472.91
2023-03-14T01:41:27.200Z,98456.19
2023-03-14T01:43:54.863Z,98440.34
2023-03-14T01:46:29.106Z,98426.97
2023-03-14T01:49:08.088Z,98422.78
2023-03-14T01:51:46.167Z,98399.38
2023-03-14T01:54:25.761Z,98412.75
2023-03-14T01:57:05.795Z,98422.78
2023-03-14T01:59:35.203Z,98446.97
2023-03-14T02:02:03.764Z,98458.66
2023-03-14T02:04:35.860Z,98442.00
2023-03-14T02:07:31.536Z,98426.09
2023-03-14T02:10:00.085Z,98425.25
2023-03-14T02:12:28.909Z,98434.47
2023-03-14T02:14:56.085Z,98434.47
2023-03-14T02:17:25.177Z,98426.06
2023-03-14T02:20:13.000Z,98423.56
2023-03-14T02:22:45.393Z,98415.22
2023-03-14T02:25:32.143Z,98411.91
2023-03-14T02:28:00.801Z,98413.53
2023-03-14T02:30:31.840Z,98412.72
2023-03-14T02:33:11.150Z,98396.84
2023-03-14T02:35:52.873Z,98406.84
2023-03-14T02:39:12.786Z,98411.81
2023-03-14T02:41:40.000Z,98401.81
2023-03-14T02:44:07.235Z,98419.38
2023-03-14T02:46:34.560Z,98424.38
2023-03-14T02:49:11.701Z,98420.25
2023-03-14T02:51:41.352Z,98410.16
2023-03-14T02:54:09.086Z,98405.16
2023-03-14T02:56:36.225Z,98400.97
2023-03-14T02:59:05.412Z,98402.66
2023-03-14T03:01:32.697Z,98398.50
2023-03-14T03:03:59.963Z,98402.63
2023-03-14T03:06:27.292Z,98390.16
2023-03-14T03:08:54.506Z,98387.59
2023-03-14T03:11:21.830Z,98383.44
2023-03-14T03:13:48.958Z,98387.63
2023-03-14T03:16:16.353Z,98381.69
2023-03-14T03:18:43.608Z,98383.38
2023-03-14T03:21:10.745Z,98387.59
2023-03-14T03:23:37.939Z,98379.25
2023-03-14T03:26:05.621Z,98372.56
2023-03-14T03:28:32.782Z,98380.03
2023-03-14T03:30:59.955Z,98377.50
2023-03-14T03:33:27.257Z,98383.34
2023-03-14T03:35:54.673Z,98374.19
2023-03-14T03:38:21.966Z,98367.41
2023-03-14T03:40:49.166Z,98369.94
2023-03-14T03:43:16.359Z,98360.81
2023-03-14T03:45:43.730Z,98363.28
2023-03-14T03:48:11.021Z,98361.63
2023-03-14T03:50:38.202Z,98361.63
2023-03-14T03:53:05.358Z,98352.41
2023-03-14T03:55:32.555Z,98349.97
2023-03-14T03:57:59.737Z,98351.63
2023-03-14T04:00:26.911Z,98349.94
2023-03-14T04:02:54.243Z,98356.63
2023-03-14T04:05:21.691Z,98359.09
2023-03-14T04:07:48.903Z,98358.25
2023-03-14T04:10:16.186Z,98356.53
2023-03-14T04:12:43.472Z,98354.88
2023-03-14T04:15:11.261Z,98348.22
2023-03-14T04:17:38.413Z,98349.03
2023-03-14T04:20:06.516Z,98341.50
2023-03-14T04:22:33.679Z,98343.94
2023-03-14T04:25:00.935Z,98355.69
2023-03-14T04:27:28.087Z,98353.19
2023-03-14T04:29:55.254Z,98362.28
2023-03-14T04:32:22.504Z,98361.47
2023-03-14T04:34:49.791Z,98363.97
2023-03-14T04:37:17.038Z,98366.44
2023-03-14T04:39:44.293Z,98367.25
2023-03-14T04:42:11.440Z,98377.25
2023-03-14T04:44:38.629Z,98370.56
2023-03-14T04:47:05.814Z,98364.72
2023-03-14T04:49:33.004Z,98358.88
2023-03-14T04:52:00.211Z,98357.19
2023-03-14T04:54:27.396Z,98350.50
2023-03-14T04:56:54.650Z,98333.81
2023-03-14T04:59:21.798Z,98337.19
2023-03-14T05:01:50.902Z,98334.63
2023-03-14T05:04:18.147Z,98332.97
2023-03-14T05:06:45.347Z,98334.53
2023-03-14T05:09:12.538Z,98335.38
2023-03-14T05:11:39.671Z,98339.53
2023-03-14T05:14:06.812Z,98348.63
2023-03-14T05:16:34.359Z,98331.94
2023-03-14T05:19:02.556Z,98331.94
2023-03-14T05:21:31.996Z,98333.63
2023-03-14T05:23:59.178Z,98331.06
2023-03-14T05:26:26.334Z,98329.38
2023-03-14T05:28:53.514Z,98328.53
2023-03-14T05:31:20.799Z,98328.56
2023-03-14T05:33:47.927Z,98337.69
2023-03-14T05:36:15.135Z,98339.34
2023-03-14T05:38:42.278Z,98345.97
2023-03-14T05:41:09.680Z,98339.25
2023-03-14T05:43:36.848Z,98338.47
2023-03-14T05:46:04.338Z,98325.13
2023-03-14T05:48:31.491Z,98327.59
2023-03-14T05:51:00.269Z,98330.97
2023-03-14T05:53:27.617Z,98305.97
2023-03-14T05:55:57.886Z,98310.97
2023-03-14T05:58:25.321Z,98309.31
2023-03-14T06:00:52.497Z,98327.63
2023-03-14T06:03:19.735Z,98332.63
2023-03-14T06:05:46.931Z,98340.94
2023-03-14T06:08:15.717Z,98340.13
2023-03-14T06:10:43.993Z,98348.47
2023-03-14T06:13:11.135Z,98341.78
2023-03-14T06:15:38.319Z,98335.97
2023-03-14T06:18:05.549Z,98342.69
2023-03-14T06:20:34.034Z,98345.38
2023-03-14T06:23:01.191Z,98358.97
2023-03-14T06:25:28.385Z,98343.28
2023-03-14T06:27:55.508Z,98351.78
2023-03-14T06:30:22.683Z,98340.91
2023-03-14T06:32:49.948Z,98347.53
2023-03-14T06:35:17.427Z,98353.22
2023-03-14T06:37:44.637Z,98355.72
2023-03-14T06:40:18.729Z,98354.88
2023-03-14T06:42:46.382Z,98350.66
2023-03-14T06:45:14.447Z,98358.38
2023-03-14T06:47:41.553Z,98340.09
2023-03-14T06:50:10.704Z,98351.78
2023-03-14T06:52:38.716Z,98353.44
2023-03-14T06:55:06.742Z,98362.59
2023-03-14T06:57:33.893Z,98372.63
2023-03-14T07:00:01.031Z,98374.31
2023-03-14T07:02:41.977Z,98370.97
2023-03-14T07:05:11.370Z,98371.03
2023-03-14T07:07:38.635Z,98365.13
2023-03-14T07:10:06.517Z,98374.38
2023-03-14T07:12:33.691Z,98372.63
2023-03-14T07:15:11.960Z,98385.19
2023-03-14T07:17:44.523Z,98369.34
2023-03-14T07:20:11.983Z,98364.31
2023-03-14T07:22:39.100Z,98358.47
2023-03-14T07:25:06.890Z,98367.59
2023-03-14T07:27:34.053Z,98374.28
2023-03-14T07:30:01.194Z,98385.97
2023-03-14T07:32:28.464Z,98370.13
2023-03-14T07:34:55.578Z,98375.19
2023-03-14T07:37:22.734Z,98383.56
2023-03-14T07:39:50.001Z,98368.50
2023-03-14T07:42:17.194Z,98371.00
2023-03-14T07:44:44.343Z,98367.69
2023-03-14T07:47:12.573Z,98361.81
2023-03-14T07:49:39.821Z,98363.47
2023-03-14T07:52:06.938Z,98374.31
2023-03-14T07:54:34.098Z,98371.75
2023-03-14T07:57:01.740Z,98374.19
2023-03-14T07:59:29.012Z,98364.16
2023-03-14T08:01:56.418Z,98375.09
2023-03-14T08:04:23.570Z,98371.75
2023-03-14T08:06:50.720Z,98366.78
2023-03-14T08:09:17.849Z,98366.78
2023-03-14T08:11:44.992Z,98374.31
2023-03-14T08:14:12.289Z,98376.78
2023-03-14T08:16:39.412Z,98368.31
2023-03-14T08:19:06.568Z,98361.63
2023-03-14T08:21:33.761Z,98369.97
2023-03-14T08:24:01.637Z,98377.44
2023-03-14T08:26:29.092Z,98369.09
2023-03-14T08:28:56.210Z,98374.16
2023-03-14T08:31:23.534Z,98362.47
2023-03-14T08:33:53.016Z,98361.66
2023-03-14T08:36:23.823Z,98367.56
2023-03-14T08:38:51.278Z,98366.69
2023-03-14T08:41:18.526Z,98363.41
2023-03-14T08:43:46.016Z,98385.09
2023-03-14T08:46:13.168Z,98385.03
2023-03-14T08:48:40.330Z,98391.66
2023-03-14T08:51:14.862Z,98384.78
2023-03-14T08:53:42.841Z,98394.78
2023-03-14T08:56:11.240Z,98398.09
2023-03-14T08:58:39.017Z,98399.69
2023-03-14T09:01:08.845Z,98400.56
2023-03-14T09:03:36.406Z,98398.06
2023-03-14T09:06:06.138Z,98388.81
2023-03-14T09:08:34.391Z,98387.19
2023-03-14T09:11:01.740Z,98391.50
2023-03-14T09:13:29.151Z,98385.63
2023-03-14T09:15:58.667Z,98379.09
2023-03-14T09:18:25.901Z,98391.66
2023-03-14T09:20:53.101Z,98385.22
2023-03-14T09:23:20.273Z,98377.69
2023-03-14T09:25:47.484Z,98388.59
2023-03-14T09:28:14.596Z,98388.50
2023-03-14T09:30:41.785Z,98379.31
2023-03-14T09:33:09.163Z,98383.44
2023-03-14T09:35:36.351Z,98378.50
2023-03-14T09:38:03.580Z,98384.34
2023-03-14T09:40:36.069Z,98381.84
2023-03-14T09:43:04.176Z,98376.88
2023-03-14T09:45:39.973Z,98381.03
2023-03-14T09:48:16.766Z,98376.03
2023-03-14T09:50:56.304Z,98383.53
2023-03-14T09:53:42.308Z,98381.06
2023-03-14T09:56:19.885Z,98375.19
2023-03-14T09:58:56.618Z,98384.38
2023-03-14T10:01:32.649Z,98377.66
2023-03-14T10:04:14.419Z,98382.72
2023-03-14T10:06:41.716Z,98383.56
2023-03-14T10:09:26.101Z,98378.56
2023-03-14T10:11:57.871Z,98377.69
2023-03-14T10:14:38.856Z,98387.72
2023-03-14T10:17:12.888Z,98376.00
2023-03-14T10:20:00.621Z,98371.00
2023-03-14T10:22:32.294Z,98376.84
2023-03-14T10:25:26.874Z,98378.53
2023-03-14T10:27:54.008Z,98378.53
2023-03-14T10:30:46.521Z,98389.41
2023-03-14T10:33:19.493Z,98394.25
2023-03-14T10:35:53.139Z,98377.94
2023-03-14T10:38:20.194Z,98375.75
2023-03-14T10:40:52.446Z,98379.91
2023-03-14T10:43:27.733Z,98372.41
2023-03-14T10:46:03.699Z,98366.16
2023-03-14T10:48:41.991Z,98361.09
2023-03-14T10:51:18.166Z,98361.31
2023-03-14T10:54:02.016Z,98364.13
2023-03-14T10:56:37.308Z,98367.47
2023-03-14T10:59:14.061Z,98362.31
2023-03-14T11:02:31.631Z,98375.63
2023-03-14T11:05:28.223Z,98353.13
2023-03-14T11:08:03.664Z,98359.97
2023-03-14T11:10:46.299Z,98363.34
2023-03-14T11:13:32.967Z,98348.31
2023-03-14T11:16:17.860Z,98356.69
2023-03-14T11:19:00.970Z,98365.94
2023-03-14T11:21:53.804Z,98364.28
2023-03-14T11:24:50.901Z,98374.31
2023-03-14T11:27:44.466Z,98373.50
2023-03-14T11:30:35.140Z,98375.16
2023-03-14T11:33:14.865Z,98376.78
2023-03-14T11:35:57.219Z,98374.31
2023-03-14T11:38:47.339Z,98368.47
2023-03-14T11:41:46.374Z,98359.28
2023-03-14T11:44:38.790Z,98359.22
2023-03-14T11:47:20.617Z,98351.59
2023-03-14T11:50:22.952Z,98349.88
2023-03-14T11:53:07.189Z,98347.34
2023-03-14T11:55:39.224Z,98341.56
2023-03-14T11:58:28.269Z,98350.03
2023-03-14T12:00:58.878Z,98376.00
2023-03-14T12:03:53.997Z,98443.31
2023-03-14T12:06:51.490Z,98462.91
2023-03-14T12:09:23.337Z,98470.47
2023-03-14T12:12:04.786Z,98501.09
2023-03-14T12:14:36.704Z,98495.97
2023-03-14T12:17:34.046Z,98523.09
2023-03-14T12:20:20.513Z,98535.16
2023-03-14T12:22:52.558Z,98557.19
2023-03-14T12:25:28.291Z,98554.81
2023-03-14T12:27:55.320Z,98556.78
2023-03-14T12:30:37.626Z,98579.41
2023-03-14T12:33:10.839Z,98585.13
2023-03-14T12:35:50.553Z,98597.25
2023-03-14T12:38:50.225Z,98618.59
2023-03-14T12:41:41.574Z,98636.00
2023-03-14T12:44:30.249Z,98668.41
2023-03-14T12:47:33.607Z,98677.09
2023-03-14T12:50:15.382Z,98698.84
2023-03-14T12:53:35.227Z,98718.44
2023-03-14T12:56:33.879Z,98740.97
2023-03-14T12:59:30.583Z,98759.91
2023-03-14T13:02:06.834Z,98760.69
2023-03-14T13:04:51.671Z,98775.78
2023-03-14T13:07:36.656Z,98793.97
2023-03-14T13:10:11.321Z,98792.78
2023-03-14T13:13:15.218Z,98813.66
2023-03-14T13:15:46.292Z,98822.53
2023-03-14T13:18:20.444Z,98836.19
2023-03-14T13:20:55.410Z,98853.19
2023-03-14T13:23:33.217Z,98856.84
2023-03-14T13:26:02.351Z,98882.53
2023-03-14T13:28:32.919Z,98878.22
2023-03-14T13:31:05.850Z,98876.09
2023-03-14T13:33:35.531Z,98888.97
2023-03-14T13:36:06.580Z,98901.75
2023-03-14T13:38:37.301Z,98932.63
2023-03-14T13:41:09.138Z,98942.41
2023-03-14T13:43:45.290Z,98945.72
2023-03-14T13:46:21.475Z,98962.56
2023-03-14T13:48:54.186Z,98958.09
2023-03-14T13:51:23.689Z,98962.47
2023-03-14T13:53:56.344Z,98982.03
2023-03-14T13:56:27.733Z,99007.22
2023-03-14T13:58:55.659Z,99022.59
2023-03-14T14:01:36.720Z,99042.97
2023-03-14T14:04:15.026Z,99034.25
2023-03-14T14:06:59.152Z,99048.81
2023-03-14T14:09:40.117Z,99062.59
2023-03-14T14:12:19.047Z,99070.91
2023-03-14T14:15:37.890Z,99081.69
2023-03-14T14:18:09.363Z,99092.69
2023-03-14T14:20:47.795Z,99102.75
2023-03-14T14:23:26.115Z,99097.59
2023-03-14T14:25:55.585Z,99102.41
2023-03-14T14:28:36.682Z,99109.44
2023-03-14T14:31:26.004Z,99128.53
2023-03-14T14:34:02.994Z,99148.34
2023-03-14T14:36:42.483Z,99150.63
2023-03-14T14:39:28.216Z,99163.53
2023-03-14T14:41:55.683Z,99179.63
2023-03-14T14:44:33.299Z,99180.97
2023-03-14T14:47:04.076Z,99190.81
2023-03-14T14:49:34.143Z,99209.31
2023-03-14T14:52:10.683Z,99220.91
2023-03-14T14:54:55.522Z,99231.25
2023-03-14T14:57:31.191Z,99250.31
2023-03-14T15:00:08.096Z,99256.09
2023-03-14T15:02:47.836Z,99252.34
2023-03-14T15:05:21.928Z,99262.88
2023-03-14T15:07:49.100Z,99257.50
2023-03-14T15:10:21.320Z,99274.59
2023-03-14T15:12:48.658Z,99273.00
2023-03-14T15:15:18.492Z,99278.25
2023-03-14T15:17:45.723Z,99282.41
2023-03-14T15:20:16.367Z,99297.22
2023-03-14T15:22:43.663Z,99303.34
2023-03-14T15:25:31.494Z,99302.66
2023-03-14T15:27:58.911Z,99307.41
2023-03-14T15:30:26.071Z,99316.50
2023-03-14T15:32:53.354Z,99325.03
2023-03-14T15:35:20.560Z,99328.53
2023-03-14T15:37:47.689Z,99334.22
2023-03-14T15:40:16.148Z,99342.84
2023-03-14T15:42:43.697Z,99346.97
2023-03-14T15:45:11.114Z,99353.25
2023-03-14T15:47:38.343Z,99346.66
2023-03-14T15:50:06.043Z,99364.44
2023-03-14T15:52:33.195Z,99368.66
2023-03-14T15:55:01.342Z,99371.03
2023-03-14T15:57:28.533Z,99370.47
2023-03-14T15:59:55.869Z,99377.63
2023-03-14T16:02:23.105Z,99377.81
2023-03-14T16:04:50.279Z,99390.25
2023-03-14T16:07:17.442Z,99390.09
2023-03-14T16:09:44.574Z,99405.00
2023-03-14T16:12:11.706Z,99413.25
2023-03-14T16:14:43.511Z,99429.59
2023-03-14T16:17:13.727Z,99438.34
2023-03-14T16:19:40.880Z,99444.25
2023-03-14T16:22:08.182Z,99445.66
2023-03-14T16:24:35.281Z,99447.41
2023-03-14T16:27:02.546Z,99458.41
2023-03-14T16:29:31.100Z,99459.31
2023-03-14T16:31:58.666Z,99472.28
2023-03-14T16:34:25.863Z,99475.84
2023-03-14T16:36:53.035Z,99493.63
2023-03-14T16:39:20.481Z,99487.03
2023-03-14T16:41:47.709Z,99494.53
2023-03-14T16:44:15.112Z,99507.09
2023-03-14T16:46:42.370Z,99512.75
2023-03-14T16:49:10.455Z,99521.34
2023-03-14T16:51:37.606Z,99530.09
2023-03-14T16:54:04.825Z,99552.53
2023-03-14T16:56:32.051Z,99557.09
2023-03-14T16:58:59.488Z,99554.84
2023-03-14T17:01:26.733Z,99558.41
2023-03-14T17:03:54.236Z,99573.00
2023-03-14T17:06:26.515Z,99586.00
2023-03-14T17:08:57.187Z,99587.44
2023-03-14T17:11:24.735Z,99595.22
2023-03-14T17:13:52.068Z,99604.44
2023-03-14T17:16:19.525Z,99624.66
2023-03-14T17:18:46.880Z,99620.75
2023-03-14T17:21:14.302Z,99641.03
2023-03-14T17:23:41.743Z,99644.03
2023-03-14T17:26:09.530Z,99659.31
2023-03-14T17:28:36.705Z,99664.31
2023-03-14T17:31:16.675Z,99673.66
2023-03-14T17:33:45.313Z,99683.88
2023-03-14T17:36:13.582Z,99681.44
2023-03-14T17:38:41.641Z,99690.88
2023-03-14T17:41:12.216Z,99703.84
2023-03-14T17:43:41.951Z,99708.31
2023-03-14T17:46:14.610Z,99718.97
2023-03-14T17:48:44.696Z,99731.19
2023-03-14T17:51:13.380Z,99747.13
2023-03-14T17:53:40.983Z,99744.84
2023-03-14T17:56:08.936Z,99744.91
2023-03-14T17:58:37.811Z,99755.72
2023-03-14T18:01:19.775Z,99765.44
2023-03-14T18:03:47.247Z,99773.34
2023-03-14T18:06:17.479Z,99783.50
2023-03-14T18:08:44.944Z,99784.97
2023-03-14T18:11:13.162Z,99795.66
2023-03-14T18:13:41.506Z,99797.44
2023-03-14T18:16:14.008Z,99806.44
2023-03-14T18:18:45.423Z,99817.28
2023-03-14T18:21:13.605Z,99826.00
2023-03-14T18:23:41.404Z,99826.72
2023-03-14T18:26:08.862Z,99832.56
2023-03-14T18:28:36.054Z,99830.00
2023-03-14T18:31:08.786Z,99839.47
2023-03-14T18:33:38.296Z,99844.25
2023-03-14T18:36:06.372Z,99844.44
2023-03-14T18:38:33.838Z,99862.09
2023-03-14T18:41:06.378Z,99862.47
2023-03-14T18:43:34.987Z,99862.84
2023-03-14T18:46:02.504Z,99878.66
2023-03-14T18:48:30.293Z,99881.94
2023-03-14T18:50:59.519Z,99881.69
2023-03-14T18:53:32.356Z,99887.91
2023-03-14T18:56:01.105Z,99894.25
2023-03-14T18:58:29.042Z,99898.50
2023-03-14T19:01:03.353Z,99911.03
2023-03-14T19:03:34.476Z,99918.13
2023-03-14T19:06:08.269Z,99928.28
2023-03-14T19:08:38.122Z,99930.88
2023-03-14T19:11:08.980Z,99941.28
2023-03-14T19:13:36.225Z,99942.53
2023-03-14T19:16:05.047Z,99964.78
2023-03-14T19:18:32.566Z,99960.97
2023-03-14T19:21:03.831Z,99962.22
2023-03-14T19:23:37.043Z,99965.13
2023-03-14T19:26:05.384Z,99976.75
2023-03-14T19:28:33.303Z,99982.91
2023-03-14T19:31:04.185Z,99991.13
2023-03-14T19:33:32.288Z,99985.50
2023-03-14T19:36:00.085Z,99990.91
2023-03-14T19:38:27.299Z,99994.28
2023-03-14T19:40:59.230Z,99998.50
2023-03-14T19:43:27.404Z,99998.50
2023-03-14T19:45:55.543Z,100000.28
2023-03-14T19:48:30.451Z,100017.69
2023-03-14T19:51:00.296Z,100007.19
2023-03-14T19:53:27.477Z,100025.84
2023-03-14T19:55:54.696Z,100019.25
2023-03-14T19:58:23.568Z,100021.56
2023-03-14T20:00:51.363Z,100031.28
2023-03-14T20:03:18.671Z,100034.28
2023-03-14T20:05:45.886Z,100037.63
2023-03-14T20:08:13.322Z,100046.84
2023-03-14T20:10:40.493Z,100049.06
2023-03-14T20:13:19.191Z,100055.03
2023-03-14T20:15:48.503Z,100060.25
2023-03-14T20:18:15.801Z,100066.84
2023-03-14T20:20:42.978Z,100069.75
2023-03-14T20:23:10.408Z,100075.56
2023-03-14T20:25:38.085Z,100084.75
2023-03-14T20:28:05.555Z,100086.84
2023-03-14T20:30:33.393Z,100096.75
2023-03-14T20:33:04.355Z,100103.75
2023-03-14T20:35:31.718Z,100101.88
2023-03-14T20:37:58.918Z,100108.03
2023-03-14T20:40:30.364Z,100108.47
2023-03-14T20:42:57.511Z,100109.88
2023-03-14T20:45:24.742Z,100113.63
2023-03-14T20:47:51.944Z,100122.53
2023-03-14T20:50:19.196Z,100117.25
2023-03-14T20:52:46.407Z,100129.72
2023-03-14T20:55:13.587Z,100142.69
2023-03-14T20:57:40.954Z,100141.88
2023-03-14T21:00:08.974Z,100144.91
2023-03-14T21:02:36.580Z,100140.78
2023-03-14T21:05:06.028Z,100145.72
2023-03-14T21:07:41.300Z,100151.91
2023-03-14T21:10:12.075Z,100153.28
2023-03-14T21:12:39.562Z,100150.38
2023-03-14T21:15:08.603Z,100157.56
2023-03-14T21:17:36.613Z,100158.53
2023-03-14T21:20:06.390Z,100160.25
2023-03-14T21:22:33.580Z,100158.66
2023-03-14T21:25:00.746Z,100172.03
2023-03-14T21:27:28.258Z,100166.84
2023-03-14T21:29:55.410Z,100168.59
2023-03-14T21:32:23.065Z,100172.75
2023-03-14T21:34:51.217Z,100172.28
2023-03-14T21:37:18.454Z,100167.56
2023-03-14T21:39:45.619Z,100173.50
2023-03-14T21:42:13.075Z,100173.72
2023-03-14T21:44:41.315Z,100178.00
2023-03-14T21:47:09.724Z,100177.47
2023-03-14T21:49:39.977Z,100190.84
2023-03-14T21:52:10.934Z,100189.72
2023-03-14T21:54:38.320Z,100189.91
2023-03-14T21:57:07.369Z,100194.38
2023-03-14T21:59:37.266Z,100204.00
2023-03-14T22:02:08.293Z,100198.47
2023-03-14T22:04:35.549Z,100205.72
2023-03-14T22:07:05.105Z,100207.16
2023-03-14T22:09:33.912Z,100207.34
2023-03-14T22:12:01.366Z,100208.59
2023-03-14T22:14:28.533Z,100206.38
2023-03-14T22:16:56.118Z,100214.13
2023-03-14T22:19:23.261Z,100226.28
2023-03-14T22:21:50.425Z,100223.63
2023-03-14T22:24:17.586Z,100237.50
2023-03-14T22:26:45.168Z,100231.59
2023-03-14T22:29:12.612Z,100231.06
2023-03-14T22:31:39.740Z,100241.72
2023-03-14T22:34:06.900Z,100248.56
2023-03-14T22:36:34.122Z,100244.44
2023-03-14T22:39:01.268Z,100244.75
2023-03-14T22:41:28.446Z,100253.34
2023-03-14T22:43:55.637Z,100247.59
2023-03-14T22:46:22.789Z,100245.91
2023-03-14T22:48:49.923Z,100252.94
2023-03-14T22:51:17.202Z,100251.13
2023-03-14T22:53:44.861Z,100255.19
2023-03-14T22:56:12.831Z,100265.31
2023-03-14T22:58:40.018Z,100266.22
2023-03-14T23:01:07.414Z,100263.19
2023-03-14T23:03:34.776Z,100257.66
2023-03-14T23:06:03.987Z,100263.09
2023-03-14T23:08:33.087Z,100258.31
2023-03-14T23:11:05.958Z,100263.00
2023-03-14T23:13:34.682Z,100264.03
2023-03-14T23:16:02.448Z,100271.66
2023-03-14T23:18:29.677Z,100269.91
2023-03-14T23:21:19.797Z,100273.31
2023-03-14T23:23:48.003Z,100276.69
2023-03-14T23:26:23.515Z,100273.84
2023-03-14T23:28:54.270Z,100279.66
2023-03-14T23:31:22.550Z,100270.19
2023-03-14T23:33:50.585Z,100276.28
2023-03-14T23:36:18.556Z,100277.88
2023-03-14T23:38:46.774Z,100275.69
2023-03-14T23:41:14.975Z,100283.47
2023-03-14T23:43:45.150Z,100294.31
2023-03-14T23:46:12.727Z,100284.63
2023-03-14T23:48:40.207Z,100301.16
2023-03-14T23:51:10.690Z,100301.91
2023-03-14T23:53:37.894Z,100297.34
2023-03-14T23:56:05.763Z,100306.00
2023-03-14T23:58:35.761Z,100302.06
